Time;durP1;ratioP1;P1;durP2;ratioP2;P2;SDS_P1;SDS_P2;PMS_P1;PMS_P2;Temp;Humidity;BMP_temperature;BMP_pressure;BME280_temperature;BME280_humidity;BME280_pressure;Samples;Min_cycle;Max_cycle;Signal;HPM_P1;HPM_P2
2021/01/09 00:01:00;;;;;;;;;;;22.70;42.90;;;;;;1599195;73;780;-59
2021/01/09 00:03:02;;;;;;;;;;;22.70;42.90;;;;;;1614972;73;793;-59
2021/01/09 00:05:04;;;;;;;;;;;22.80;42.90;;;;;;1607374;73;760;-57
2021/01/09 00:07:07;;;;;;;;;;;22.70;43.00;;;;;;1611144;73;1154;-60
2021/01/09 00:09:09;;;;;;;;;;;22.80;43.10;;;;;;1610601;73;750;-59
2021/01/09 00:11:11;;;;;;;;;;;22.80;43.00;;;;;;1605406;73;721;-60
2021/01/09 00:13:13;;;;;;;;;;;22.80;43.10;;;;;;1612536;73;716;-59
2021/01/09 00:15:14;;;;;;;;;;;22.80;42.90;;;;;;1598373;73;1933;-60
2021/01/09 00:17:16;;;;;;;;;;;22.90;43.10;;;;;;1608444;73;1232;-58
2021/01/09 00:19:18;;;;;;;;;;;22.80;43.00;;;;;;1602331;73;691;-59
2021/01/09 00:21:20;;;;;;;;;;;22.90;43.10;;;;;;1614956;73;644;-57
2021/01/09 00:23:22;;;;;;;;;;;22.80;42.90;;;;;;1601396;73;615;-58
2021/01/09 00:25:24;;;;;;;;;;;22.90;43.10;;;;;;1607263;73;736;-57
2021/01/09 00:27:26;;;;;;;;;;;22.80;43.10;;;;;;1607016;73;1191;-58
2021/01/09 00:29:28;;;;;;;;;;;22.90;43.20;;;;;;1602161;73;741;-57
2021/01/09 00:31:30;;;;;;;;;;;22.90;43.20;;;;;;1609415;73;812;-57
2021/01/09 00:33:32;;;;;;;;;;;22.90;43.30;;;;;;1606889;73;784;-59
2021/01/09 00:35:33;;;;;;;;;;;22.90;43.40;;;;;;1604959;73;1939;-59
2021/01/09 00:37:35;;;;;;;;;;;22.80;43.20;;;;;;1605726;73;1193;-59
2021/01/09 00:39:37;;;;;;;;;;;22.90;43.20;;;;;;1611731;73;715;-59
2021/01/09 00:41:39;;;;;;;;;;;22.80;43.00;;;;;;1609441;73;861;-60
2021/01/09 00:43:41;;;;;;;;;;;22.90;43.10;;;;;;1598455;73;788;-58
2021/01/09 00:45:43;;;;;;;;;;;22.90;43.00;;;;;;1601429;73;796;-57
2021/01/09 00:47:45;;;;;;;;;;;23.00;43.00;;;;;;1603831;73;673;-57
2021/01/09 00:49:47;;;;;;;;;;;22.90;42.90;;;;;;1605585;73;677;-59
2021/01/09 00:51:48;;;;;;;;;;;23.00;42.80;;;;;;1611475;73;783;-57
2021/01/09 00:53:50;;;;;;;;;;;22.90;42.80;;;;;;1606925;73;737;-56
2021/01/09 00:55:52;;;;;;;;;;;23.00;42.70;;;;;;1603925;73;1921;-58
2021/01/09 00:57:54;;;;;;;;;;;23.00;42.80;;;;;;1608774;73;733;-59
2021/01/09 00:59:56;;;;;;;;;;;23.00;42.70;;;;;;1602700;73;753;-59
2021/01/09 01:01:58;;;;;;;;;;;23.00;42.80;;;;;;1596999;73;743;-57
2021/01/09 01:04:00;;;;;;;;;;;23.00;42.60;;;;;;1605020;73;862;-58
2021/01/09 01:06:02;;;;;;;;;;;23.00;42.60;;;;;;1604790;73;1135;-58
2021/01/09 01:08:04;;;;;;;;;;;23.00;42.50;;;;;;1610625;73;700;-59
2021/01/09 01:10:06;;;;;;;;;;;23.00;42.60;;;;;;1604624;73;727;-59
2021/01/09 01:12:08;;;;;;;;;;;22.90;42.50;;;;;;1612430;73;762;-58
2021/01/09 01:14:09;;;;;;;;;;;23.00;42.50;;;;;;1609132;73;731;-59
2021/01/09 01:16:13;;;;;;;;;;;23.00;42.50;;;;;;1605466;73;1931;-58
2021/01/09 01:18:15;;;;;;;;;;;23.00;42.50;;;;;;1607312;73;779;-58
2021/01/09 01:20:17;;;;;;;;;;;23.00;42.50;;;;;;1611375;73;761;-59
2021/01/09 01:22:18;;;;;;;;;;;23.00;42.60;;;;;;1594488;73;739;-59
2021/01/09 01:24:20;;;;;;;;;;;23.00;42.60;;;;;;1598868;73;726;-58
2021/01/09 01:26:22;;;;;;;;;;;23.00;42.50;;;;;;1606317;73;1192;-59
2021/01/09 01:28:24;;;;;;;;;;;23.00;42.40;;;;;;1600041;73;706;-58
2021/01/09 01:30:26;;;;;;;;;;;23.00;42.40;;;;;;1601542;73;696;-60
2021/01/09 01:32:28;;;;;;;;;;;23.00;42.40;;;;;;1600237;73;668;-60
2021/01/09 01:34:30;;;;;;;;;;;23.00;42.30;;;;;;1606128;73;739;-58
2021/01/09 01:36:31;;;;;;;;;;;23.10;42.50;;;;;;1601611;73;1958;-59
2021/01/09 01:38:33;;;;;;;;;;;23.00;42.40;;;;;;1608375;73;707;-59
2021/01/09 01:40:35;;;;;;;;;;;23.10;42.40;;;;;;1609600;73;753;-60
2021/01/09 01:42:37;;;;;;;;;;;23.10;42.40;;;;;;1609785;73;701;-62
2021/01/09 01:44:39;;;;;;;;;;;23.00;42.30;;;;;;1600870;73;732;-60
2021/01/09 01:46:41;;;;;;;;;;;23.00;42.40;;;;;;1609150;73;1147;-60
2021/01/09 01:48:43;;;;;;;;;;;23.00;42.40;;;;;;1607816;73;724;-59
2021/01/09 01:50:45;;;;;;;;;;;23.00;42.40;;;;;;1610925;73;755;-59
2021/01/09 01:52:46;;;;;;;;;;;23.00;42.50;;;;;;1610490;73;691;-60
2021/01/09 01:54:48;;;;;;;;;;;23.00;42.30;;;;;;1594633;73;1945;-58
2021/01/09 01:56:52;;;;;;;;;;;23.00;42.30;;;;;;1602652;73;1168;-60
2021/01/09 01:58:54;;;;;;;;;;;23.00;42.30;;;;;;1610978;73;663;-57
2021/01/09 02:00:56;;;;;;;;;;;23.00;42.30;;;;;;1600972;73;742;-58
2021/01/09 02:02:58;;;;;;;;;;;23.00;42.20;;;;;;1604537;73;779;-59
2021/01/09 02:05:01;;;;;;;;;;;23.00;42.20;;;;;;1598549;73;722;-60
2021/01/09 02:07:04;;;;;;;;;;;23.00;42.20;;;;;;1603643;73;1139;-59
2021/01/09 02:09:11;;;;;;;;;;;23.00;42.10;;;;;;1601519;73;2149;-59
2021/01/09 02:11:17;;;;;;;;;;;23.00;42.20;;;;;;1607816;73;1684;-57
2021/01/09 02:13:29;;;;;;;;;;;23.00;42.20;;;;;;1610665;73;675;-59
2021/01/09 02:15:31;;;;;;;;;;;23.00;42.10;;;;;;1606066;73;1939;-57
2021/01/09 02:17:35;;;;;;;;;;;23.00;42.30;;;;;;1607302;73;1135;-60
2021/01/09 02:19:40;;;;;;;;;;;23.00;42.30;;;;;;1611041;73;1601;-58
2021/01/09 02:21:42;;;;;;;;;;;23.00;42.20;;;;;;1607523;73;908;-60
2021/01/09 02:23:44;;;;;;;;;;;23.00;42.10;;;;;;1606625;73;788;-60
2021/01/09 02:25:46;;;;;;;;;;;23.00;42.10;;;;;;1589593;73;1188;-59
2021/01/09 02:27:48;;;;;;;;;;;23.00;42.00;;;;;;1591688;73;709;-60
2021/01/09 02:29:53;;;;;;;;;;;23.00;41.90;;;;;;1600037;73;731;-60
2021/01/09 02:31:58;;;;;;;;;;;23.00;41.90;;;;;;1604555;73;750;-58
2021/01/09 02:34:00;;;;;;;;;;;23.00;41.90;;;;;;1608489;73;736;-59
2021/01/09 02:36:02;;;;;;;;;;;23.00;41.80;;;;;;1612002;73;1933;-60
2021/01/09 02:38:04;;;;;;;;;;;22.90;41.80;;;;;;1612060;73;713;-60
2021/01/09 02:40:06;;;;;;;;;;;23.00;41.80;;;;;;1602270;73;802;-61
2021/01/09 02:42:08;;;;;;;;;;;23.00;41.80;;;;;;1602088;73;707;-60
2021/01/09 02:44:11;;;;;;;;;;;22.90;41.80;;;;;;1593471;73;737;-58
2021/01/09 02:46:13;;;;;;;;;;;23.00;41.80;;;;;;1610992;73;1178;-60
2021/01/09 02:48:15;;;;;;;;;;;23.00;41.80;;;;;;1591075;73;726;-60
2021/01/09 02:50:16;;;;;;;;;;;23.00;41.70;;;;;;1598647;73;694;-59
2021/01/09 02:52:18;;;;;;;;;;;23.00;41.80;;;;;;1596798;73;712;-59
2021/01/09 02:54:20;;;;;;;;;;;23.00;41.80;;;;;;1604486;73;716;-59
2021/01/09 02:56:22;;;;;;;;;;;23.00;41.80;;;;;;1608357;73;1914;-58
2021/01/09 02:58:24;;;;;;;;;;;23.00;41.70;;;;;;1603113;73;685;-58
2021/01/09 03:00:26;;;;;;;;;;;23.00;41.70;;;;;;1598196;73;643;-57
2021/01/09 03:02:28;;;;;;;;;;;23.00;41.60;;;;;;1591977;73;746;-58
2021/01/09 03:04:29;;;;;;;;;;;23.00;41.50;;;;;;1614881;73;693;-58
2021/01/09 03:06:31;;;;;;;;;;;23.00;41.50;;;;;;1615194;73;1143;-58
2021/01/09 03:08:33;;;;;;;;;;;23.10;41.70;;;;;;1605717;73;733;-59
2021/01/09 03:10:35;;;;;;;;;;;23.00;41.60;;;;;;1600741;73;827;-60
2021/01/09 03:12:37;;;;;;;;;;;23.10;41.80;;;;;;1611503;73;759;-59
2021/01/09 03:14:39;;;;;;;;;;;23.10;41.80;;;;;;1610380;73;725;-57
2021/01/09 03:16:41;;;;;;;;;;;23.00;41.60;;;;;;1601117;73;1933;-60
2021/01/09 03:18:42;;;;;;;;;;;23.00;41.60;;;;;;1592889;73;783;-60
2021/01/09 03:20:44;;;;;;;;;;;23.10;41.80;;;;;;1601335;73;689;-59
2021/01/09 03:22:46;;;;;;;;;;;23.00;41.60;;;;;;1594803;73;686;-60
2021/01/09 03:24:48;;;;;;;;;;;23.00;41.60;;;;;;1594637;73;787;-58
2021/01/09 03:26:50;;;;;;;;;;;23.00;41.60;;;;;;1596487;73;1196;-59
2021/01/09 03:28:52;;;;;;;;;;;23.10;41.70;;;;;;1613636;73;697;-59
2021/01/09 03:30:54;;;;;;;;;;;23.10;41.60;;;;;;1601580;73;759;-60
2021/01/09 03:32:55;;;;;;;;;;;23.10;41.60;;;;;;1591126;73;698;-60
2021/01/09 03:34:57;;;;;;;;;;;23.10;41.60;;;;;;1591360;73;720;-59
2021/01/09 03:36:59;;;;;;;;;;;23.10;41.50;;;;;;1592194;73;1938;-59
2021/01/09 03:39:01;;;;;;;;;;;23.10;41.50;;;;;;1594323;73;778;-60
2021/01/09 03:41:03;;;;;;;;;;;23.10;41.40;;;;;;1591865;73;707;-59
2021/01/09 03:43:05;;;;;;;;;;;23.10;41.40;;;;;;1610429;73;815;-57
2021/01/09 03:45:07;;;;;;;;;;;23.10;41.40;;;;;;1599529;73;818;-58
2021/01/09 03:47:09;;;;;;;;;;;23.10;41.40;;;;;;1607821;73;1163;-57
2021/01/09 03:49:11;;;;;;;;;;;23.10;41.50;;;;;;1603502;73;727;-59
2021/01/09 03:51:13;;;;;;;;;;;23.10;41.50;;;;;;1615734;73;741;-58
2021/01/09 03:53:16;;;;;;;;;;;23.10;41.50;;;;;;1598303;73;729;-57
2021/01/09 03:55:18;;;;;;;;;;;23.10;41.50;;;;;;1593506;73;827;-59
2021/01/09 03:57:20;;;;;;;;;;;23.10;41.40;;;;;;1598459;73;1901;-59
2021/01/09 03:59:21;;;;;;;;;;;23.10;41.40;;;;;;1604426;73;758;-59
2021/01/09 04:01:23;;;;;;;;;;;23.20;41.30;;;;;;1606155;73;769;-57
2021/01/09 04:03:25;;;;;;;;;;;23.10;41.30;;;;;;1590730;73;957;-59
2021/01/09 04:05:27;;;;;;;;;;;23.10;41.30;;;;;;1601128;73;708;-59
2021/01/09 04:07:29;;;;;;;;;;;23.10;41.30;;;;;;1610241;73;1132;-57
2021/01/09 04:09:31;;;;;;;;;;;23.10;41.20;;;;;;1590565;73;746;-57
2021/01/09 04:11:33;;;;;;;;;;;23.10;41.30;;;;;;1591161;73;739;-58
2021/01/09 04:13:35;;;;;;;;;;;23.10;41.20;;;;;;1591839;73;733;-59
2021/01/09 04:15:36;;;;;;;;;;;23.10;41.20;;;;;;1595958;73;1926;-57
2021/01/09 04:17:39;;;;;;;;;;;23.20;41.10;;;;;;1594068;73;1073;-59
2021/01/09 04:19:40;;;;;;;;;;;23.20;41.10;;;;;;1599926;73;840;-58
2021/01/09 04:21:52;;;;;;;;;;;23.10;41.10;;;;;;1603204;73;733;-58
2021/01/09 04:23:54;;;;;;;;;;;23.10;41.10;;;;;;1606619;73;827;-56
2021/01/09 04:25:55;;;;;;;;;;;23.10;41.00;;;;;;1588749;73;1205;-57
2021/01/09 04:27:57;;;;;;;;;;;23.00;41.00;;;;;;1596350;73;681;-55
2021/01/09 04:29:59;;;;;;;;;;;23.00;41.10;;;;;;1607164;73;801;-56
2021/01/09 04:32:01;;;;;;;;;;;23.00;41.10;;;;;;1616421;73;765;-56
2021/01/09 04:34:03;;;;;;;;;;;23.10;41.30;;;;;;1592255;73;821;-57
2021/01/09 04:36:05;;;;;;;;;;;23.00;41.00;;;;;;1593150;73;1925;-58
2021/01/09 04:38:07;;;;;;;;;;;23.10;41.10;;;;;;1610486;73;701;-59
2021/01/09 04:40:09;;;;;;;;;;;23.00;40.80;;;;;;1597299;73;1072;-58
2021/01/09 04:42:11;;;;;;;;;;;23.10;40.90;;;;;;1592217;73;750;-58
2021/01/09 04:44:13;;;;;;;;;;;23.10;41.00;;;;;;1589308;73;772;-58
2021/01/09 04:46:16;;;;;;;;;;;23.10;40.80;;;;;;1592778;73;1109;-59
2021/01/09 04:48:18;;;;;;;;;;;23.10;40.80;;;;;;1593687;73;682;-57
2021/01/09 04:50:20;;;;;;;;;;;23.10;40.80;;;;;;1604293;73;746;-57
2021/01/09 04:52:22;;;;;;;;;;;23.10;40.90;;;;;;1599047;73;748;-57
2021/01/09 04:54:24;;;;;;;;;;;23.10;40.90;;;;;;1597020;73;788;-57
2021/01/09 04:56:26;;;;;;;;;;;23.10;41.00;;;;;;1612586;73;1942;-57
2021/01/09 04:58:28;;;;;;;;;;;23.10;41.00;;;;;;1603334;73;767;-58
2021/01/09 05:00:30;;;;;;;;;;;23.10;41.00;;;;;;1613379;73;728;-57
2021/01/09 05:02:32;;;;;;;;;;;23.10;41.00;;;;;;1612121;73;806;-60
2021/01/09 05:04:34;;;;;;;;;;;23.10;40.80;;;;;;1589394;73;738;-58
2021/01/09 05:06:36;;;;;;;;;;;23.20;40.80;;;;;;1591785;73;1121;-59
2021/01/09 05:08:38;;;;;;;;;;;23.10;40.80;;;;;;1602707;73;719;-57
2021/01/09 05:10:40;;;;;;;;;;;23.20;40.80;;;;;;1600520;73;786;-58
2021/01/09 05:12:42;;;;;;;;;;;23.20;40.70;;;;;;1605360;73;783;-60
2021/01/09 05:14:44;;;;;;;;;;;23.20;40.70;;;;;;1607020;73;677;-59
2021/01/09 05:16:46;;;;;;;;;;;23.20;40.70;;;;;;1609144;73;1933;-58
2021/01/09 05:18:48;;;;;;;;;;;23.20;40.60;;;;;;1598934;73;782;-57
2021/01/09 05:20:49;;;;;;;;;;;23.20;40.60;;;;;;1603974;73;679;-60
2021/01/09 05:22:51;;;;;;;;;;;23.20;40.60;;;;;;1602896;73;754;-56
2021/01/09 05:24:53;;;;;;;;;;;23.20;40.60;;;;;;1611834;73;709;-58
2021/01/09 05:26:55;;;;;;;;;;;23.20;40.50;;;;;;1616180;73;1159;-57
2021/01/09 05:28:58;;;;;;;;;;;23.20;40.50;;;;;;1605350;73;669;-57
2021/01/09 05:31:00;;;;;;;;;;;23.20;40.50;;;;;;1591052;73;750;-59
2021/01/09 05:33:02;;;;;;;;;;;23.20;40.40;;;;;;1608851;73;779;-59
2021/01/09 05:35:03;;;;;;;;;;;23.20;40.40;;;;;;1607965;73;715;-56
2021/01/09 05:37:07;;;;;;;;;;;23.20;40.30;;;;;;1595585;73;1935;-58
2021/01/09 05:39:09;;;;;;;;;;;23.20;40.30;;;;;;1596913;73;1854;-56
2021/01/09 05:41:12;;;;;;;;;;;23.20;40.30;;;;;;1593225;73;780;-57
2021/01/09 05:43:14;;;;;;;;;;;23.20;40.20;;;;;;1590257;73;1694;-59
2021/01/09 05:45:17;;;;;;;;;;;23.20;40.20;;;;;;1600557;73;724;-59
2021/01/09 05:47:20;;;;;;;;;;;23.20;40.20;;;;;;1603422;73;1105;-59
2021/01/09 05:49:23;;;;;;;;;;;23.20;40.20;;;;;;1604874;73;724;-59
2021/01/09 05:51:26;;;;;;;;;;;23.20;40.30;;;;;;1596861;73;1594;-57
2021/01/09 05:53:29;;;;;;;;;;;23.30;40.30;;;;;;1610256;73;725;-57
2021/01/09 05:55:33;;;;;;;;;;;23.20;40.20;;;;;;1599955;73;1122;-56
2021/01/09 05:57:35;;;;;;;;;;;23.40;40.40;;;;;;1607561;73;1921;-59
2021/01/09 05:59:37;;;;;;;;;;;23.30;40.40;;;;;;1603490;73;730;-57
2021/01/09 06:01:39;;;;;;;;;;;23.30;40.40;;;;;;1611521;73;757;-58
2021/01/09 06:03:42;;;;;;;;;;;23.30;40.30;;;;;;1577524;75;786;-59
2021/01/09 06:05:49;;;;;;;;;;;23.20;40.20;;;;;;1615049;72;697;-56
2021/01/09 06:07:49;;;;;;;;;;;23.30;40.30;;;;;;1624585;72;1204;-58
2021/01/09 06:09:52;;;;;;;;;;;23.30;40.20;;;;;;1617990;73;738;-59
2021/01/09 06:11:56;;;;;;;;;;;23.30;40.20;;;;;;1600824;72;1687;-59
2021/01/09 06:14:00;;;;;;;;;;;23.40;40.10;;;;;;1616049;72;1294;-56
2021/01/09 06:16:05;;;;;;;;;;;23.40;40.00;;;;;;1607192;73;1649;-56
2021/01/09 06:18:07;;;;;;;;;;;23.40;40.00;;;;;;1605507;73;1921;-58
2021/01/09 06:20:09;;;;;;;;;;;23.40;39.90;;;;;;1609980;72;808;-59
2021/01/09 06:22:11;;;;;;;;;;;23.40;39.80;;;;;;1625420;72;829;-58
2021/01/09 06:24:13;;;;;;;;;;;23.40;39.90;;;;;;1603591;72;832;-57
2021/01/09 06:26:15;;;;;;;;;;;23.40;39.90;;;;;;1599528;73;1192;-56
2021/01/09 06:28:17;;;;;;;;;;;23.30;40.00;;;;;;1605321;72;721;-58
2021/01/09 06:30:19;;;;;;;;;;;23.30;40.00;;;;;;1606348;72;691;-58
2021/01/09 06:32:21;;;;;;;;;;;23.30;40.00;;;;;;1606616;72;688;-58
2021/01/09 06:34:26;;;;;;;;;;;23.40;40.00;;;;;;1607109;73;765;-58
2021/01/09 06:36:28;;;;;;;;;;;23.50;40.00;;;;;;1608074;72;1931;-57
2021/01/09 06:38:30;;;;;;;;;;;23.50;40.00;;;;;;1617670;73;726;-59
2021/01/09 06:40:32;;;;;;;;;;;23.40;40.00;;;;;;1623213;72;724;-59
2021/01/09 06:42:34;;;;;;;;;;;23.40;40.00;;;;;;1608215;73;737;-58
2021/01/09 06:44:36;;;;;;;;;;;23.50;40.10;;;;;;1623745;73;812;-59
2021/01/09 06:46:38;;;;;;;;;;;23.40;40.00;;;;;;1612040;72;1062;-58
2021/01/09 06:48:41;;;;;;;;;;;23.40;40.00;;;;;;1569695;73;807;-58
2021/01/09 06:50:43;;;;;;;;;;;23.40;39.90;;;;;;1617177;73;1465;-57
2021/01/09 06:52:55;;;;;;;;;;;23.40;40.00;;;;;;1613779;72;708;-57
2021/01/09 06:54:57;;;;;;;;;;;23.50;40.10;;;;;;1614924;72;744;-57
2021/01/09 06:57:12;;;;;;;;;;;23.50;40.10;;;;;;1620565;72;1925;-58
2021/01/09 06:59:15;;;;;;;;;;;23.40;40.00;;;;;;1624514;72;677;-57
2021/01/09 07:01:20;;;;;;;;;;;23.40;39.90;;;;;;1593547;72;1570;-57
2021/01/09 07:03:22;;;;;;;;;;;23.40;39.90;;;;;;1613121;72;819;-57
2021/01/09 07:05:24;;;;;;;;;;;23.40;39.90;;;;;;1606672;72;716;-57
2021/01/09 07:07:32;;;;;;;;;;;23.40;39.90;;;;;;1621770;72;1151;-59
2021/01/09 07:09:34;;;;;;;;;;;23.40;39.80;;;;;;1618197;72;722;-59
2021/01/09 07:11:36;;;;;;;;;;;23.40;39.80;;;;;;1620526;73;1063;-59
2021/01/09 07:13:39;;;;;;;;;;;23.40;39.90;;;;;;1609086;73;712;-58
2021/01/09 07:15:41;;;;;;;;;;;23.40;39.80;;;;;;1609693;72;827;-60
2021/01/09 07:17:44;;;;;;;;;;;23.40;39.70;;;;;;1616127;72;1952;-57
2021/01/09 07:19:46;;;;;;;;;;;23.40;39.70;;;;;;1600986;73;783;-59
2021/01/09 07:21:48;;;;;;;;;;;23.40;39.70;;;;;;1616299;73;668;-57
2021/01/09 07:23:51;;;;;;;;;;;23.40;39.70;;;;;;1606886;72;755;-57
2021/01/09 07:25:53;;;;;;;;;;;23.40;39.70;;;;;;1565628;74;1145;-58
2021/01/09 07:27:55;;;;;;;;;;;23.40;39.60;;;;;;1548047;75;1122;-57
2021/01/09 07:29:57;;;;;;;;;;;23.40;39.60;;;;;;1594213;73;752;-57
2021/01/09 07:31:59;;;;;;;;;;;23.40;39.70;;;;;;1598488;73;781;-57
2021/01/09 07:34:01;;;;;;;;;;;23.40;39.70;;;;;;1606860;73;790;-57
2021/01/09 07:36:03;;;;;;;;;;;23.40;39.70;;;;;;1608051;73;1191;-58
2021/01/09 07:38:05;;;;;;;;;;;23.50;39.70;;;;;;1602946;73;1953;-59
2021/01/09 07:40:08;;;;;;;;;;;23.50;39.80;;;;;;1604429;73;789;-59
2021/01/09 07:42:15;;;;;;;;;;;23.50;39.80;;;;;;1547876;73;1056;-58
2021/01/09 07:44:18;;;;;;;;;;;23.40;39.60;;;;;;1608805;73;1756;-57
2021/01/09 07:46:24;;;;;;;;;;;23.40;39.60;;;;;;1593154;73;1170;-58
2021/01/09 07:48:27;;;;;;;;;;;23.40;39.60;;;;;;1608914;73;699;-56
2021/01/09 07:50:31;;;;;;;;;;;23.40;39.70;;;;;;1607276;73;1801;-57
2021/01/09 07:52:34;;;;;;;;;;;23.40;39.60;;;;;;1605635;73;1937;-58
2021/01/09 07:54:46;;;;;;;;;;;23.40;39.60;;;;;;1608962;73;820;-57
2021/01/09 07:56:48;;;;;;;;;;;23.40;39.60;;;;;;1608041;73;1175;-57
2021/01/09 07:58:50;;;;;;;;;;;23.40;39.60;;;;;;1606858;73;1922;-57
2021/01/09 08:00:51;;;;;;;;;;;23.40;39.60;;;;;;1609796;73;705;-57
2021/01/09 08:02:53;;;;;;;;;;;23.40;39.60;;;;;;1575991;75;1171;-58
2021/01/09 08:05:05;;;;;;;;;;;23.40;39.70;;;;;;1614821;73;708;-58
2021/01/09 08:07:07;;;;;;;;;;;23.40;39.70;;;;;;1620108;73;1127;-57
2021/01/09 08:09:09;;;;;;;;;;;23.40;39.60;;;;;;1617848;72;685;-57
2021/01/09 08:11:11;;;;;;;;;;;23.40;39.60;;;;;;1617043;73;685;-57
2021/01/09 08:13:13;;;;;;;;;;;23.40;39.70;;;;;;1625706;72;786;-58
2021/01/09 08:15:15;;;;;;;;;;;23.40;39.70;;;;;;1619040;73;689;-57
2021/01/09 08:17:17;;;;;;;;;;;23.40;39.60;;;;;;1622126;73;1935;-57
2021/01/09 08:19:19;;;;;;;;;;;23.40;39.40;;;;;;1623732;72;736;-58
2021/01/09 08:21:21;;;;;;;;;;;23.40;39.40;;;;;;1624745;73;827;-57
2021/01/09 08:23:23;;;;;;;;;;;23.50;39.50;;;;;;1621709;73;783;-58
2021/01/09 08:25:25;;;;;;;;;;;23.50;39.50;;;;;;1619159;73;644;-58
2021/01/09 08:27:27;;;;;;;;;;;23.50;39.40;;;;;;1618720;73;1155;-59
2021/01/09 08:29:29;;;;;;;;;;;23.40;39.30;;;;;;1622400;72;636;-59
2021/01/09 08:31:32;;;;;;;;;;;23.40;39.30;;;;;;1620688;72;670;-58
2021/01/09 08:33:34;;;;;;;;;;;23.40;39.40;;;;;;1584273;73;792;-58
2021/01/09 08:35:37;;;;;;;;;;;23.40;39.40;;;;;;1615437;73;826;-58
2021/01/09 08:37:39;;;;;;;;;;;23.40;39.50;;;;;;1622565;72;1936;-59
2021/01/09 08:39:43;;;;;;;;;;;23.40;39.40;;;;;;1618679;72;837;-58
2021/01/09 08:41:45;;;;;;;;;;;23.40;39.50;;;;;;1623067;73;882;-59
2021/01/09 08:43:47;;;;;;;;;;;23.30;39.60;;;;;;1616878;72;776;-59
2021/01/09 08:45:49;;;;;;;;;;;23.30;39.50;;;;;;1614441;72;1083;-59
2021/01/09 08:47:51;;;;;;;;;;;23.40;39.50;;;;;;1625470;72;673;-59
2021/01/09 08:49:53;;;;;;;;;;;23.40;39.40;;;;;;1618415;72;819;-60
2021/01/09 08:52:02;;;;;;;;;;;23.40;39.40;;;;;;1612924;72;770;-60
2021/01/09 08:54:06;;;;;;;;;;;23.40;39.30;;;;;;1619481;73;1729;-58
2021/01/09 08:56:08;;;;;;;;;;;23.40;39.40;;;;;;1620967;73;1150;-59
2021/01/09 08:58:11;;;;;;;;;;;23.40;39.80;;;;;;1625271;73;2220;-57
2021/01/09 09:00:13;;;;;;;;;;;23.30;39.80;;;;;;1621216;72;736;-57
2021/01/09 09:02:17;;;;;;;;;;;23.40;39.60;;;;;;1610656;72;729;-57
2021/01/09 09:04:20;;;;;;;;;;;23.50;39.40;;;;;;1609232;73;621;-58
2021/01/09 09:06:22;;;;;;;;;;;23.50;39.10;;;;;;1609704;73;1212;-57
2021/01/09 09:08:25;;;;;;;;;;;23.50;38.90;;;;;;1609940;72;801;-59
2021/01/09 09:10:28;;;;;;;;;;;23.50;38.70;;;;;;1585766;73;777;-58
2021/01/09 09:12:30;;;;;;;;;;;23.50;38.60;;;;;;1612202;73;961;-57
2021/01/09 09:14:32;;;;;;;;;;;23.50;38.60;;;;;;1614104;72;725;-56
2021/01/09 09:16:34;;;;;;;;;;;23.50;38.40;;;;;;1611569;72;1130;-60
2021/01/09 09:18:36;;;;;;;;;;;23.50;38.40;;;;;;1607445;73;1926;-58
2021/01/09 09:20:38;;;;;;;;;;;23.50;38.30;;;;;;1611036;72;697;-56
2021/01/09 09:22:40;;;;;;;;;;;23.40;38.10;;;;;;1620715;72;759;-56
2021/01/09 09:24:42;;;;;;;;;;;23.40;38.10;;;;;;1623427;73;929;-59
2021/01/09 09:26:44;;;;;;;;;;;23.40;37.70;;;;;;1608583;73;1228;-58
2021/01/09 09:28:47;;;;;;;;;;;23.30;38.20;;;;;;1612524;72;732;-59
2021/01/09 09:30:49;;;;;;;;;;;23.40;38.10;;;;;;1613950;72;1748;-59
2021/01/09 09:32:51;;;;;;;;;;;23.40;38.00;;;;;;1616069;72;789;-58
2021/01/09 09:34:53;;;;;;;;;;;23.40;37.90;;;;;;1615445;73;720;-59
2021/01/09 09:36:59;;;;;;;;;;;23.40;38.00;;;;;;1616088;73;1186;-58
2021/01/09 09:39:02;;;;;;;;;;;23.40;37.90;;;;;;1617147;72;1905;-58
2021/01/09 09:41:05;;;;;;;;;;;23.30;37.80;;;;;;1609467;72;1761;-58
2021/01/09 09:43:17;;;;;;;;;;;23.30;37.80;;;;;;1608286;72;803;-58
2021/01/09 09:45:19;;;;;;;;;;;23.30;37.70;;;;;;1612543;72;826;-56
2021/01/09 09:47:28;;;;;;;;;;;23.20;37.60;;;;;;1619958;73;1130;-59
2021/01/09 09:49:29;;;;;;;;;;;23.20;37.50;;;;;;1610972;73;783;-58
2021/01/09 09:51:35;;;;;;;;;;;23.20;37.30;;;;;;1617767;72;707;-58
2021/01/09 09:53:42;;;;;;;;;;;23.20;37.20;;;;;;1618328;72;737;-57
2021/01/09 09:55:41;;;;;;;;;;;23.20;37.10;;;;;;1608527;73;1565;-57
2021/01/09 09:57:43;;;;;;;;;;;23.20;37.10;;;;;;1610010;72;1945;-58
2021/01/09 09:59:45;;;;;;;;;;;23.20;37.00;;;;;;1607580;72;783;-58
2021/01/09 10:01:48;;;;;;;;;;;23.10;36.90;;;;;;1621957;73;687;-55
2021/01/09 10:03:50;;;;;;;;;;;23.20;36.80;;;;;;1611042;72;1661;-58
2021/01/09 10:06:02;;;;;;;;;;;23.20;36.80;;;;;;1608641;72;1140;-58
2021/01/09 10:08:11;;;;;;;;;;;23.20;36.80;;;;;;1615265;73;758;-60
2021/01/09 10:10:14;;;;;;;;;;;23.20;36.70;;;;;;1610494;73;943;-56
2021/01/09 10:12:16;;;;;;;;;;;23.10;36.60;;;;;;1601510;72;1659;-59
2021/01/09 10:14:18;;;;;;;;;;;23.10;36.50;;;;;;1604300;72;713;-58
2021/01/09 10:16:20;;;;;;;;;;;23.20;36.60;;;;;;1613861;73;1143;-58
2021/01/09 10:18:22;;;;;;;;;;;23.10;36.50;;;;;;1626863;72;1931;-59
2021/01/09 10:20:24;;;;;;;;;;;23.10;36.40;;;;;;1610228;73;691;-60
2021/01/09 10:22:26;;;;;;;;;;;23.10;36.40;;;;;;1611467;72;825;-57
2021/01/09 10:24:28;;;;;;;;;;;23.10;36.50;;;;;;1607742;72;731;-56
2021/01/09 10:26:33;;;;;;;;;;;23.20;36.70;;;;;;1623041;72;1212;-58
2021/01/09 10:28:35;;;;;;;;;;;23.10;36.60;;;;;;1617126;73;710;-58
2021/01/09 10:30:37;;;;;;;;;;;23.10;36.60;;;;;;1617898;72;722;-58
2021/01/09 10:32:39;;;;;;;;;;;23.10;36.70;;;;;;1616544;72;711;-59
2021/01/09 10:34:40;;;;;;;;;;;23.10;36.50;;;;;;1604318;72;683;-57
2021/01/09 10:36:42;;;;;;;;;;;23.10;36.50;;;;;;1612488;72;1110;-58
2021/01/09 10:38:44;;;;;;;;;;;23.10;36.50;;;;;;1604824;73;1893;-58
2021/01/09 10:40:46;;;;;;;;;;;23.10;36.40;;;;;;1623235;72;659;-59
2021/01/09 10:42:48;;;;;;;;;;;23.00;36.40;;;;;;1626773;73;665;-58
2021/01/09 10:44:50;;;;;;;;;;;23.00;36.30;;;;;;1607925;72;762;-56
2021/01/09 10:46:52;;;;;;;;;;;23.10;36.40;;;;;;1601968;72;1111;-57
2021/01/09 10:48:54;;;;;;;;;;;23.00;36.20;;;;;;1600763;72;717;-58
2021/01/09 10:50:55;;;;;;;;;;;23.00;35.90;;;;;;1612256;72;716;-57
2021/01/09 10:52:57;;;;;;;;;;;22.90;31.00;;;;;;1620572;73;801;-58
2021/01/09 10:54:59;;;;;;;;;;;23.00;34.40;;;;;;1603555;72;728;-58
2021/01/09 10:57:01;;;;;;;;;;;23.00;34.70;;;;;;1603462;72;1164;-58
2021/01/09 10:59:03;;;;;;;;;;;23.00;34.80;;;;;;1610315;72;1933;-58
2021/01/09 11:01:05;;;;;;;;;;;23.00;34.90;;;;;;1608785;73;708;-56
2021/01/09 11:03:07;;;;;;;;;;;22.90;34.80;;;;;;1608188;73;682;-57
2021/01/09 11:05:09;;;;;;;;;;;22.90;34.90;;;;;;1611200;72;716;-58
2021/01/09 11:07:11;;;;;;;;;;;22.90;34.70;;;;;;1621823;72;1132;-57
2021/01/09 11:09:13;;;;;;;;;;;22.90;35.00;;;;;;1605268;72;669;-58
2021/01/09 11:11:15;;;;;;;;;;;22.90;35.00;;;;;;1623374;73;691;-58
2021/01/09 11:13:17;;;;;;;;;;;22.90;35.00;;;;;;1616969;73;714;-59
2021/01/09 11:15:18;;;;;;;;;;;22.90;34.90;;;;;;1621249;72;721;-58
2021/01/09 11:17:20;;;;;;;;;;;22.90;35.00;;;;;;1616923;72;1147;-58
2021/01/09 11:19:22;;;;;;;;;;;22.90;35.20;;;;;;1618568;72;1929;-60
2021/01/09 11:21:24;;;;;;;;;;;22.90;35.20;;;;;;1622082;73;742;-59
2021/01/09 11:23:26;;;;;;;;;;;22.90;34.40;;;;;;1625064;73;815;-61
2021/01/09 11:25:28;;;;;;;;;;;22.90;33.50;;;;;;1616880;73;780;-58
2021/01/09 11:27:30;;;;;;;;;;;22.90;32.70;;;;;;1624016;73;1182;-58
2021/01/09 11:29:32;;;;;;;;;;;22.80;31.80;;;;;;1590939;74;795;-56
2021/01/09 11:31:33;;;;;;;;;;;22.80;31.40;;;;;;1587869;74;687;-57
2021/01/09 11:33:35;;;;;;;;;;;22.80;30.60;;;;;;1569133;74;643;-56
2021/01/09 11:35:40;;;;;;;;;;;22.70;30.20;;;;;;1608859;73;723;-55
2021/01/09 11:37:42;;;;;;;;;;;22.60;29.80;;;;;;1611647;73;1382;-58
2021/01/09 11:39:43;;;;;;;;;;;22.60;29.20;;;;;;1604600;73;1929;-57
2021/01/09 11:41:45;;;;;;;;;;;22.60;28.50;;;;;;1599621;73;726;-56
2021/01/09 11:43:47;;;;;;;;;;;22.50;28.20;;;;;;1609340;73;843;-55
2021/01/09 11:45:49;;;;;;;;;;;22.40;28.30;;;;;;1605323;73;1145;-55
2021/01/09 11:47:51;;;;;;;;;;;22.30;27.90;;;;;;1600888;73;804;-56
2021/01/09 11:49:53;;;;;;;;;;;22.30;28.20;;;;;;1608453;73;697;-58
2021/01/09 11:51:55;;;;;;;;;;;22.20;25.80;;;;;;1604376;73;739;-57
2021/01/09 11:53:57;;;;;;;;;;;22.10;27.00;;;;;;1602010;73;796;-58
2021/01/09 11:55:58;;;;;;;;;;;22.00;26.50;;;;;;1596366;73;1166;-57
2021/01/09 11:58:00;;;;;;;;;;;21.90;26.10;;;;;;1599635;73;697;-56
2021/01/09 12:00:04;;;;;;;;;;;21.90;26.80;;;;;;1609184;73;1931;-57
2021/01/09 12:02:06;;;;;;;;;;;21.80;26.40;;;;;;1608872;73;672;-56
2021/01/09 12:04:08;;;;;;;;;;;21.70;26.00;;;;;;1609765;73;660;-58
2021/01/09 12:06:12;;;;;;;;;;;21.70;26.80;;;;;;1601282;73;1151;-59
2021/01/09 12:08:14;;;;;;;;;;;21.60;27.10;;;;;;1611365;73;1744;-56
2021/01/09 12:10:16;;;;;;;;;;;21.60;26.90;;;;;;1594847;73;808;-55